Time;durP1;ratioP1;P1;durP2;ratioP2;P2;SDS_P1;SDS_P2;PMS_P1;PMS_P2;Temp;Humidity;BMP_temperature;BMP_pressure;BME280_temperature;BME280_humidity;BME280_pressure;Samples;Min_cycle;Max_cycle;Signal;HPM_P1;HPM_P2
2023/03/19 00:01:17;;;;;;;20.30;11.40;;;;;;;4.24;55.72;100757.71;106787;1257;1016204;-74
2023/03/19 00:06:10;;;;;;;17.50;10.50;;;;;;;4.15;56.05;100753.77;106803;1259;1017251;-74
2023/03/19 00:11:08;;;;;;;18.20;11.60;;;;;;;4.07;56.19;100750.33;106758;1258;1016341;-74
2023/03/19 00:16:01;;;;;;;21.20;12.70;;;;;;;4.02;56.17;100744.44;106751;1259;1064382;-74
2023/03/19 00:20:54;;;;;;;20.60;12.50;;;;;;;3.96;56.37;100745.73;106660;1259;1016438;-74
2023/03/19 00:25:47;;;;;;;27.30;12.80;;;;;;;3.88;56.14;100742.46;106706;1259;1016320;-74
2023/03/19 00:30:40;;;;;;;20.80;12.80;;;;;;;3.77;56.26;100740.27;106715;1259;1016245;-74
2023/03/19 00:35:34;;;;;;;24.30;12.00;;;;;;;3.64;56.41;100736.25;106667;1257;1016406;-74
2023/03/19 00:40:28;;;;;;;24.50;15.00;;;;;;;3.52;56.73;100737.92;106667;1259;1064409;-74
2023/03/19 00:45:21;;;;;;;24.20;12.20;;;;;;;3.43;56.81;100736.31;106776;1259;1016356;-74
2023/03/19 00:50:14;;;;;;;30.80;13.80;;;;;;;3.33;57.13;100732.11;106699;1258;1016267;-74
2023/03/19 00:55:07;;;;;;;26.20;13.10;;;;;;;3.29;57.12;100728.16;106777;1259;1016211;-75
2023/03/19 01:00:00;;;;;;;22.00;12.80;;;;;;;3.26;57.08;100727.79;106798;1257;1016151;-75
2023/03/19 01:04:53;;;;;;;23.40;12.70;;;;;;;3.21;57.11;100728.61;106814;1258;1016386;-74
2023/03/19 01:09:47;;;;;;;22.90;13.80;;;;;;;3.16;57.56;100726.68;106835;1257;1016379;-74
2023/03/19 01:14:40;;;;;;;21.30;12.10;;;;;;;3.12;57.71;100726.47;106736;1261;1016167;-74
2023/03/19 01:19:34;;;;;;;22.30;13.10;;;;;;;3.06;57.83;100731.50;106862;1257;1016278;-74
2023/03/19 01:24:32;;;;;;;19.30;11.10;;;;;;;2.99;57.99;100735.64;106823;1258;1016498;-74
2023/03/19 01:29:25;;;;;;;21.90;12.30;;;;;;;2.90;58.22;100738.95;106799;1258;1065551;-74
2023/03/19 01:34:20;;;;;;;22.10;12.80;;;;;;;2.83;58.43;100740.83;106798;1257;1071201;-74
2023/03/19 01:39:18;;;;;;;18.50;10.70;;;;;;;2.76;58.71;100744.11;106876;1257;1051314;-74
2023/03/19 01:44:33;;;;;;;18.80;10.90;;;;;;;2.71;58.60;100746.23;106730;1257;1016449;-74
2023/03/19 01:50:04;;;;;;;21.20;10.80;;;;;;;2.69;59.09;100749.39;106747;1257;1071541;-74
2023/03/19 01:55:00;;;;;;;22.90;12.30;;;;;;;2.66;58.97;100748.12;106844;1258;1065501;-74
2023/03/19 02:00:15;;;;;;;22.60;11.90;;;;;;;2.67;59.12;100747.27;106786;1257;1070523;-74
2023/03/19 02:05:14;;;;;;;19.00;11.00;;;;;;;2.66;59.28;100745.52;106788;1259;1050908;-74
2023/03/19 02:10:13;;;;;;;22.70;11.30;;;;;;;2.62;59.27;100741.23;106809;1257;1058543;-74
2023/03/19 02:15:08;;;;;;;17.00;10.50;;;;;;;2.57;59.50;100739.94;106748;1257;1073031;-74
2023/03/19 02:20:19;;;;;;;17.10;10.60;;;;;;;2.56;59.67;100739.88;106843;1258;1016066;-74
2023/03/19 02:25:25;;;;;;;19.70;11.00;;;;;;;2.52;59.60;100742.26;106695;1262;1071512;-74
2023/03/19 02:30:36;;;;;;;19.10;10.10;;;;;;;2.50;59.58;100734.97;106810;1257;1051092;-75
2023/03/19 02:35:35;;;;;;;20.70;10.40;;;;;;;2.46;60.06;100737.98;106779;1257;1058141;-74
2023/03/19 02:40:32;;;;;;;21.00;10.10;;;;;;;2.41;60.04;100738.81;106819;1258;1074318;-74
2023/03/19 02:45:30;;;;;;;16.20;9.60;;;;;;;2.37;59.97;100745.08;106815;1258;1065243;-75
2023/03/19 02:50:24;;;;;;;19.40;11.30;;;;;;;2.31;60.11;100747.71;106838;1257;1070604;-74
2023/03/19 02:55:18;;;;;;;20.30;10.10;;;;;;;2.25;60.22;100749.28;106862;1258;1016594;-75
2023/03/19 03:00:12;;;;;;;18.50;10.90;;;;;;;2.18;60.37;100750.29;106802;1257;1016372;-74
2023/03/19 03:05:08;;;;;;;17.40;10.20;;;;;;;2.16;60.60;100756.87;106965;1257;1017663;-74
2023/03/19 03:10:02;;;;;;;16.90;10.30;;;;;;;2.13;60.48;100754.15;106876;1257;1065027;-75
2023/03/19 03:14:55;;;;;;;18.60;11.10;;;;;;;2.10;60.51;100756.39;106757;1257;1016499;-74
2023/03/19 03:19:48;;;;;;;17.10;10.40;;;;;;;2.08;60.90;100753.73;106809;1258;1018954;-74
2023/03/19 03:24:41;;;;;;;18.50;9.90;;;;;;;2.06;60.69;100754.13;106875;1257;1016065;-74
2023/03/19 03:29:35;;;;;;;14.10;9.70;;;;;;;2.04;61.16;100751.27;106831;1258;1016330;-74
2023/03/19 03:34:28;;;;;;;18.30;10.40;;;;;;;2.02;60.93;100747.27;106772;1257;1016222;-74
2023/03/19 03:39:21;;;;;;;16.40;10.10;;;;;;;1.98;61.32;100746.84;106763;1258;1016341;-74
2023/03/19 03:44:14;;;;;;;17.20;10.00;;;;;;;1.93;61.25;100749.33;106847;1258;1016298;-75
2023/03/19 03:49:07;;;;;;;17.40;10.40;;;;;;;1.91;61.48;100743.77;106856;1257;1016394;-74
2023/03/19 03:54:00;;;;;;;17.10;9.70;;;;;;;1.88;61.78;100737.46;106768;1258;1016476;-75
2023/03/19 03:58:54;;;;;;;17.70;10.00;;;;;;;1.86;61.93;100735.34;106879;1257;1015916;-74
2023/03/19 04:03:48;;;;;;;17.50;10.00;;;;;;;1.86;61.95;100734.48;106829;1257;1016181;-74
2023/03/19 04:08:41;;;;;;;19.80;10.70;;;;;;;1.82;62.04;100733.92;106723;1261;1016490;-74
2023/03/19 04:13:35;;;;;;;17.70;10.00;;;;;;;1.78;62.59;100733.37;106882;1257;1016896;-74
2023/03/19 04:18:29;;;;;;;16.70;10.80;;;;;;;1.77;62.62;100734.33;106795;1257;1072584;-74
2023/03/19 04:23:22;;;;;;;15.10;9.10;;;;;;;1.75;62.43;100737.66;106726;1258;1016131;-74
2023/03/19 04:28:14;;;;;;;15.80;10.80;;;;;;;1.72;62.64;100735.09;106753;1259;1016288;-74
2023/03/19 04:33:09;;;;;;;18.50;11.80;;;;;;;1.67;62.49;100722.71;106822;1257;1016145;-74
2023/03/19 04:38:04;;;;;;;15.30;9.60;;;;;;;1.63;62.70;100722.48;106877;1258;1058099;-74
2023/03/19 04:42:57;;;;;;;14.90;9.10;;;;;;;1.60;62.93;100720.60;106817;1258;1018372;-74
2023/03/19 04:47:57;;;;;;;18.20;9.50;;;;;;;1.58;62.99;100730.73;106808;1257;1065380;-74
2023/03/19 04:52:51;;;;;;;13.90;9.50;;;;;;;1.55;62.98;100732.13;106809;1257;1016295;-74
2023/03/19 04:57:45;;;;;;;17.20;10.40;;;;;;;1.56;62.87;100734.71;106837;1258;1016448;-74
2023/03/19 05:02:39;;;;;;;19.60;11.40;;;;;;;1.51;63.19;100729.22;106782;1258;1016213;-75
2023/03/19 05:07:33;;;;;;;16.70;9.40;;;;;;;1.46;63.14;100731.66;106694;1259;1016424;-74
2023/03/19 05:12:27;;;;;;;15.70;9.10;;;;;;;1.44;63.30;100732.25;106738;1259;1064169;-74
2023/03/19 05:17:21;;;;;;;13.90;8.40;;;;;;;1.41;63.26;100736.54;106723;1259;1016466;-74
2023/03/19 05:22:21;;;;;;;15.40;8.60;;;;;;;1.40;63.40;100739.21;106712;1263;1053703;-74
2023/03/19 05:27:14;;;;;;;16.50;10.90;;;;;;;1.38;63.30;100742.34;106683;1259;1016102;-74
2023/03/19 05:32:29;;;;;;;16.90;9.50;;;;;;;1.36;63.81;100752.96;106717;1260;1073658;-74
2023/03/19 05:37:26;;;;;;;16.80;9.60;;;;;;;1.36;63.61;100760.52;106718;1259;1065845;-75
2023/03/19 05:42:24;;;;;;;15.30;9.20;;;;;;;1.39;63.59;100769.56;106761;1258;1070499;-75
2023/03/19 05:47:20;;;;;;;19.50;10.90;;;;;;;1.45;63.77;100758.26;106737;1259;1051565;-74
2023/03/19 05:52:18;;;;;;;22.70;11.30;;;;;;;1.53;63.63;100754.94;106691;1262;1057799;-74
2023/03/19 05:57:12;;;;;;;12.80;9.40;;;;;;;1.62;63.75;100758.30;106712;1258;1016225;-75
2023/03/19 06:02:20;;;;;;;16.30;9.10;;;;;;;1.74;63.52;100752.99;106736;1261;1068492;-74
2023/03/19 06:07:15;;;;;;;14.70;9.00;;;;;;;1.90;63.68;100748.84;106741;1259;1016473;-74
2023/03/19 06:12:08;;;;;;;13.50;9.20;;;;;;;2.07;63.84;100745.82;106725;1258;1016066;-74
2023/03/19 06:17:16;;;;;;;16.80;9.60;;;;;;;2.30;63.50;100750.75;106742;1257;1058165;-74
2023/03/19 06:22:10;;;;;;;16.80;9.90;;;;;;;2.87;63.17;100751.48;106748;1258;1016427;-74
2023/03/19 06:27:04;;;;;;;16.50;10.70;;;;;;;3.35;62.62;100748.67;106790;1258;1016450;-75
2023/03/19 06:31:59;;;;;;;18.60;10.50;;;;;;;3.56;62.09;100752.31;106695;1259;1070808;-74
2023/03/19 06:37:04;;;;;;;18.50;10.40;;;;;;;3.77;61.79;100757.73;106767;1260;1050849;-74
2023/03/19 06:41:57;;;;;;;15.20;9.60;;;;;;;3.96;61.31;100761.52;106777;1259;1016279;-74
2023/03/19 06:46:51;;;;;;;16.80;10.50;;;;;;;4.20;60.74;100762.73;106794;1259;1016504;-75
2023/03/19 06:51:45;;;;;;;15.20;10.40;;;;;;;4.55;60.35;100761.98;106770;1259;1016363;-74
2023/03/19 06:56:38;;;;;;;18.40;10.70;;;;;;;4.70;60.19;100759.14;106777;1259;1017781;-74
2023/03/19 07:01:31;;;;;;;21.50;12.70;;;;;;;5.04;59.15;100758.30;106819;1259;1016518;-74
2023/03/19 07:06:24;;;;;;;20.90;12.60;;;;;;;5.61;58.54;100755.86;106818;1257;1016462;-74
2023/03/19 07:11:17;;;;;;;20.70;12.90;;;;;;;6.11;57.91;100762.90;106707;1257;1016130;-75
2023/03/19 07:16:10;;;;;;;22.20;13.00;;;;;;;6.48;56.96;100763.49;106777;1260;1016376;-74
2023/03/19 07:21:03;;;;;;;21.40;13.10;;;;;;;6.91;56.55;100760.95;106757;1258;1015763;-74
2023/03/19 07:25:57;;;;;;;21.90;13.00;;;;;;;7.28;55.77;100756.60;106778;1258;1016202;-74
2023/03/19 07:30:53;;;;;;;19.90;13.60;;;;;;;7.53;55.01;100757.54;106823;1260;1018275;-74
2023/03/19 07:35:47;;;;;;;18.80;13.60;;;;;;;8.35;53.71;100752.22;106675;1260;1074410;-75
2023/03/19 07:40:40;;;;;;;18.20;13.30;;;;;;;9.22;52.65;100754.75;106731;1260;1016438;-75
2023/03/19 07:45:50;;;;;;;22.30;14.50;;;;;;;9.25;52.43;100755.36;106756;1257;1070850;-75
2023/03/19 07:50:43;;;;;;;19.70;13.30;;;;;;;10.02;51.52;100757.44;106738;1260;1016448;-74
2023/03/19 07:55:37;;;;;;;17.80;14.00;;;;;;;13.56;47.89;100736.69;106799;1259;1016399;-75
2023/03/19 08:00:30;;;;;;;19.50;14.90;;;;;;;16.94;43.89;100726.38;106706;1257;1015819;-74
2023/03/19 08:05:23;;;;;;;19.10;15.00;;;;;;;17.90;41.99;100726.30;106787;1257;1016291;-74
2023/03/19 08:10:16;;;;;;;16.00;13.20;;;;;;;18.97;40.36;100721.34;106752;1257;1016608;-75
2023/03/19 08:15:11;;;;;;;17.00;13.70;;;;;;;17.86;40.52;100726.89;106788;1258;1016441;-74
2023/03/19 08:20:11;;;;;;;16.30;13.80;;;;;;;18.62;39.51;100721.70;106769;1259;1058420;-75
2023/03/19 08:25:05;;;;;;;15.70;13.10;;;;;;;20.92;37.32;100712.16;106752;1259;1072198;-74
2023/03/19 08:29:58;;;;;;;14.70;13.00;;;;;;;20.91;36.36;100715.45;106769;1259;1066234;-75
2023/03/19 08:34:51;;;;;;;15.00;13.40;;;;;;;20.63;35.86;100715.48;106700;1259;1016373;-74
2023/03/19 08:39:44;;;;;;;15.70;12.80;;;;;;;20.75;34.52;100714.80;106726;1257;1016333;-74
2023/03/19 08:44:37;;;;;;;13.50;12.10;;;;;;;20.08;35.17;100714.05;106752;1258;1016445;-75
2023/03/19 08:49:30;;;;;;;14.40;12.10;;;;;;;18.71;35.64;100718.63;106792;1257;1016507;-74
2023/03/19 08:54:23;;;;;;;13.00;11.40;;;;;;;18.20;35.95;100715.20;106760;1258;1016575;-74
2023/03/19 08:59:16;;;;;;;14.00;11.50;;;;;;;17.78;36.33;100714.17;106762;1259;1015899;-74
2023/03/19 09:04:10;;;;;;;13.00;10.60;;;;;;;17.50;36.58;100708.38;106731;1262;1015639;-74
2023/03/19 09:09:03;;;;;;;14.80;11.10;;;;;;;17.37;36.92;100710.10;106792;1259;1018153;-74
2023/03/19 09:13:56;;;;;;;14.00;11.20;;;;;;;17.29;36.78;100706.14;106808;1259;1016472;-74
2023/03/19 09:18:49;;;;;;;12.10;10.50;;;;;;;17.16;37.14;100710.14;106788;1258;1016270;-74
2023/03/19 09:23:42;;;;;;;12.20;10.70;;;;;;;17.44;36.41;100704.23;106768;1258;1019757;-74
2023/03/19 09:28:36;;;;;;;12.80;11.50;;;;;;;17.64;36.42;100702.42;106785;1258;1015955;-73
2023/03/19 09:33:29;;;;;;;13.70;11.00;;;;;;;17.37;36.17;100698.70;106771;1258;1060875;-73
2023/03/19 09:38:22;;;;;;;14.30;10.60;;;;;;;17.09;36.64;100697.77;106779;1257;1016200;-74
2023/03/19 09:43:42;;;;;;;15.70;12.00;;;;;;;17.34;36.40;100698.23;106779;1258;1016453;-74
2023/03/19 09:48:50;;;;;;;13.80;10.90;;;;;;;17.43;36.29;100693.73;106777;1258;1070405;-74
2023/03/19 09:54:00;;;;;;;12.80;10.90;;;;;;;16.99;35.99;100688.07;106725;1257;1051744;-73
2023/03/19 09:58:53;;;;;;;17.40;11.70;;;;;;;16.82;36.68;100692.06;106790;1258;1058995;-74
2023/03/19 10:04:08;;;;;;;14.30;11.40;;;;;;;17.64;36.39;100685.23;106727;1259;1018188;-74
2023/03/19 10:09:16;;;;;;;12.10;10.70;;;;;;;18.60;35.37;100680.00;106817;1257;1065600;-74
2023/03/19 10:14:54;;;;;;;15.00;10.70;;;;;;;19.48;34.70;100671.55;106832;1258;1070393;-74
2023/03/19 10:20:09;;;;;;;12.60;10.50;;;;;;;21.22;33.30;100673.01;106857;1257;1051241;-74
2023/03/19 10:25:04;;;;;;;11.70;10.50;;;;;;;23.43;31.73;100662.73;106836;1258;1058209;-74
2023/03/19 10:29:57;;;;;;;11.80;9.60;;;;;;;24.95;30.27;100660.77;106803;1262;1072938;-74
2023/03/19 10:34:52;;;;;;;9.60;8.60;;;;;;;25.75;28.99;100661.11;106897;1257;1016376;-74
2023/03/19 10:39:47;;;;;;;9.90;9.10;;;;;;;26.53;28.76;100653.61;106844;1259;1073645;-74
2023/03/19 10:44:50;;;;;;;10.20;9.20;;;;;;;27.34;27.64;100653.16;106773;1261;1050849;-77
2023/03/19 10:49:43;;;;;;;11.00;9.30;;;;;;;27.82;26.61;100650.35;106841;1258;1057952;-73
2023/03/19 10:54:40;;;;;;;10.60;9.50;;;;;;;28.41;26.62;100644.55;106848;1262;1017434;-73
2023/03/19 10:59:37;;;;;;;14.30;10.20;;;;;;;28.75;25.90;100647.16;106847;1258;1064856;-74
2023/03/19 11:04:31;;;;;;;10.80;9.70;;;;;;;28.13;25.10;100640.23;106886;1262;1071689;-73
2023/03/19 11:09:37;;;;;;;10.80;9.40;;;;;;;27.86;25.38;100642.84;106832;1262;1016495;-74
2023/03/19 11:14:44;;;;;;;10.00;9.00;;;;;;;27.82;25.59;100640.44;106782;1262;1058707;-74
2023/03/19 11:19:41;;;;;;;10.60;9.70;;;;;;;26.72;25.06;100638.27;106834;1258;1072552;-73
2023/03/19 11:24:40;;;;;;;8.60;7.40;;;;;;;25.45;25.71;100642.80;106900;1261;1065389;-74
2023/03/19 11:29:40;;;;;;;10.00;9.00;;;;;;;24.63;26.69;100637.52;106886;1258;1071522;-74
2023/03/19 11:35:00;;;;;;;11.90;8.90;;;;;;;24.58;27.11;100625.70;106854;1262;1055059;-73
2023/03/19 11:40:24;;;;;;;13.40;11.50;;;;;;;24.74;27.27;100623.43;106833;1262;1058758;-74
2023/03/19 11:45:32;;;;;;;10.10;8.90;;;;;;;23.13;27.33;100621.80;106854;1257;1073521;-74
2023/03/19 11:50:55;;;;;;;10.30;9.10;;;;;;;22.51;28.15;100623.10;106856;1259;1066045;-74
2023/03/19 11:56:20;;;;;;;13.10;10.70;;;;;;;21.79;28.59;100622.23;106838;1258;1070428;-74
2023/03/19 12:01:44;;;;;;;12.10;10.30;;;;;;;21.22;29.38;100611.52;106818;1257;1051544;-74
2023/03/19 12:06:46;;;;;;;10.30;8.60;;;;;;;20.84;29.57;100605.71;106870;1262;1058185;-74
2023/03/19 12:11:45;;;;;;;8.80;7.90;;;;;;;20.33;29.38;100595.94;106861;1258;1074223;-74
2023/03/19 12:16:50;;;;;;;8.20;7.40;;;;;;;20.00;29.93;100592.34;106881;1258;1065001;-74
2023/03/19 12:21:56;;;;;;;10.50;7.60;;;;;;;20.25;30.85;100589.30;106888;1257;1073296;-73
2023/03/19 12:27:20;;;;;;;9.70;7.70;;;;;;;19.90;30.62;100591.72;106829;1258;1050241;-73
2023/03/19 12:32:17;;;;;;;7.20;6.40;;;;;;;19.36;30.93;100592.36;106823;1257;1064847;-73
2023/03/19 12:37:13;;;;;;;7.20;6.50;;;;;;;19.13;31.25;100587.39;106796;1257;1072954;-73
2023/03/19 12:42:15;;;;;;;7.70;6.90;;;;;;;18.96;31.36;100583.88;106907;1260;1065460;-73
2023/03/19 12:47:21;;;;;;;7.10;6.10;;;;;;;18.81;31.15;100578.35;106882;1257;1073217;-73
2023/03/19 12:52:27;;;;;;;7.90;7.00;;;;;;;19.01;31.57;100579.39;106793;1257;1051630;-73
2023/03/19 12:57:37;;;;;;;6.70;5.90;;;;;;;18.91;31.27;100575.02;106851;1258;1058154;-73
2023/03/19 13:02:46;;;;;;;7.40;6.20;;;;;;;18.60;31.45;100571.35;106901;1257;1073743;-74
2023/03/19 13:07:59;;;;;;;7.10;5.80;;;;;;;18.34;31.87;100564.63;106865;1260;1064884;-73
2023/03/19 13:12:54;;;;;;;6.60;5.70;;;;;;;18.30;32.08;100562.95;106862;1257;1070847;-74
2023/03/19 13:18:31;;;;;;;6.30;5.60;;;;;;;18.09;31.74;100562.59;106841;1260;1051074;-73
2023/03/19 13:23:33;;;;;;;6.90;6.20;;;;;;;17.83;32.04;100547.90;106712;1257;1058825;-72
2023/03/19 13:28:31;;;;;;;10.10;6.10;;;;;;;17.67;32.45;100546.22;106851;1258;1072788;-73
2023/03/19 13:33:24;;;;;;;6.60;5.60;;;;;;;17.71;32.96;100541.08;106991;1257;1065665;-74
2023/03/19 13:38:20;;;;;;;7.80;5.30;;;;;;;18.06;32.91;100546.16;106793;1262;1016457;-73
2023/03/19 13:43:26;;;;;;;11.20;6.80;;;;;;;18.25;32.37;100541.09;106741;1257;1051347;-73
2023/03/19 13:48:27;;;;;;;6.00;5.30;;;;;;;18.17;32.19;100540.52;106757;1257;1059083;-73
2023/03/19 13:53:36;;;;;;;7.00;6.30;;;;;;;18.12;32.53;100535.70;106745;1257;1073030;-73
2023/03/19 14:04:11;;;;;;;7.90;5.80;;;;;;;17.76;32.86;100540.11;106656;1257;1073020;-74
2023/03/19 14:09:07;;;;;;;6.90;5.70;;;;;;;17.55;32.95;100543.92;106680;1261;1051522;-73
2023/03/19 14:14:05;;;;;;;7.80;6.00;;;;;;;17.36;33.02;100540.34;106712;1261;1058119;-73
2023/03/19 14:19:01;;;;;;;6.70;5.60;;;;;;;17.11;33.20;100536.82;106677;1259;1073100;-73
2023/03/19 14:23:56;;;;;;;8.60;6.00;;;;;;;17.03;33.72;100537.80;106513;1258;1218520;-73
2023/03/19 14:29:01;;;;;;;6.80;5.50;;;;;;;16.99;34.58;100536.09;106757;1259;1071390;-73
2023/03/19 14:34:01;;;;;;;6.40;4.60;;;;;;;16.98;34.02;100528.94;106742;1261;1051025;-72
2023/03/19 14:38:59;;;;;;;6.60;5.90;;;;;;;16.89;33.68;100527.30;106970;1259;1059267;-73
2023/03/19 14:44:10;;;;;;;6.20;5.50;;;;;;;16.87;34.00;100523.66;106806;1260;1072641;-73
2023/03/19 14:49:56;;;;;;;8.70;6.00;;;;;;;16.81;33.96;100519.67;106780;1260;1065511;-73
2023/03/19 14:55:09;;;;;;;6.70;4.60;;;;;;;16.60;33.96;100518.85;106718;1259;1072091;-74
2023/03/19 15:00:08;;;;;;;8.20;5.40;;;;;;;16.43;34.34;100518.14;106744;1257;1051500;-74
2023/03/19 15:05:23;;;;;;;9.10;5.30;;;;;;;16.30;34.14;100519.14;106829;1262;1058253;-74
2023/03/19 15:10:20;;;;;;;6.50;5.50;;;;;;;16.23;34.74;100521.83;106801;1257;1073241;-73
2023/03/19 15:15:31;;;;;;;15.90;6.70;;;;;;;16.25;34.84;100512.55;106918;1257;1066612;-74
2023/03/19 15:20:25;;;;;;;6.70;4.90;;;;;;;16.17;34.88;100501.95;106784;1257;1070691;-73
2023/03/19 15:25:18;;;;;;;8.00;5.50;;;;;;;15.92;35.12;100510.05;106800;1258;1016494;-74
2023/03/19 15:30:26;;;;;;;7.90;5.60;;;;;;;15.66;35.23;100511.79;106783;1260;1016363;-73
2023/03/19 15:35:24;;;;;;;5.70;5.00;;;;;;;15.39;35.76;100514.07;106851;1257;1074730;-74
2023/03/19 15:40:19;;;;;;;4.80;4.20;;;;;;;15.11;36.11;100512.99;106799;1257;1065017;-73
2023/03/19 15:45:18;;;;;;;11.60;5.30;;;;;;;14.84;36.84;100512.41;106716;1258;1071079;-74
2023/03/19 15:50:19;;;;;;;5.60;5.00;;;;;;;14.56;37.35;100514.56;106652;1257;1051035;-74
2023/03/19 15:55:14;;;;;;;7.90;4.70;;;;;;;14.33;38.44;100516.36;106867;1257;1059612;-74
2023/03/19 16:00:10;;;;;;;8.50;4.80;;;;;;;14.06;39.13;100519.00;106848;1257;1072871;-74
2023/03/19 16:05:07;;;;;;;15.10;5.80;;;;;;;13.77;40.28;100527.18;106819;1261;1063961;-74
2023/03/19 16:10:34;;;;;;;7.80;5.30;;;;;;;13.46;40.46;100536.70;106788;1257;1071668;-74
2023/03/19 16:15:43;;;;;;;9.30;4.70;;;;;;;13.16;41.24;100537.30;106753;1262;1053970;-74
2023/03/19 16:20:45;;;;;;;23.20;5.40;;;;;;;12.90;41.96;100535.80;106883;1257;1057534;-74
2023/03/19 16:25:39;;;;;;;16.90;5.10;;;;;;;12.64;43.32;100540.70;106860;1257;1075449;-74
2023/03/19 16:30:32;;;;;;;12.70;5.60;;;;;;;12.37;43.89;100543.67;106893;1261;1016436;-74
2023/03/19 16:35:28;;;;;;;7.90;5.50;;;;;;;12.10;44.34;100554.41;106863;1259;1015977;-74
2023/03/19 16:40:22;;;;;;;10.10;5.60;;;;;;;11.87;44.47;100561.33;106837;1257;1050793;-73
2023/03/19 16:45:15;;;;;;;13.40;5.20;;;;;;;11.68;44.62;100561.46;106821;1257;1016357;-73
2023/03/19 16:50:09;;;;;;;18.60;6.90;;;;;;;11.46;44.86;100565.58;106839;1257;1019752;-74
2023/03/19 16:55:04;;;;;;;11.40;6.10;;;;;;;11.23;45.08;100570.70;106829;1257;1016288;-73
2023/03/19 16:59:58;;;;;;;14.10;7.40;;;;;;;10.96;45.45;100573.14;106886;1257;1070287;-74
2023/03/19 17:04:51;;;;;;;11.40;6.80;;;;;;;10.76;46.32;100579.11;106836;1258;1016219;-74
2023/03/19 17:09:43;;;;;;;19.20;8.20;;;;;;;10.54;46.54;100582.77;106784;1261;1016325;-74
2023/03/19 17:14:37;;;;;;;10.30;7.00;;;;;;;10.37;46.65;100583.21;106834;1257;1015789;-74
2023/03/19 17:19:35;;;;;;;15.70;8.00;;;;;;;10.18;47.12;100579.23;106827;1257;1016292;-73
2023/03/19 17:24:34;;;;;;;12.70;6.70;;;;;;;9.96;47.63;100589.43;106843;1257;1070485;-74
2023/03/19 17:29:27;;;;;;;12.70;7.00;;;;;;;9.77;47.91;100589.79;106827;1261;1050633;-74
2023/03/19 17:34:24;;;;;;;11.60;6.40;;;;;;;9.64;48.36;100591.80;106846;1257;1016333;-74
2023/03/19 17:39:17;;;;;;;10.00;5.80;;;;;;;9.54;48.66;100593.36;106893;1259;1073286;-74
2023/03/19 17:44:10;;;;;;;17.10;6.70;;;;;;;9.43;49.17;100593.14;106808;1259;1016339;-73
2023/03/19 17:49:03;;;;;;;13.80;7.60;;;;;;;9.30;49.53;100591.84;106783;1258;1015727;-74
2023/03/19 17:53:55;;;;;;;11.10;6.30;;;;;;;9.17;49.64;100586.05;106870;1262;1018250;-74
2023/03/19 17:58:48;;;;;;;14.70;6.10;;;;;;;9.11;50.03;100589.73;106859;1257;1016209;-73
2023/03/19 18:03:42;;;;;;;10.20;5.90;;;;;;;9.06;50.49;100591.00;106800;1257;1016481;-74
2023/03/19 18:08:35;;;;;;;9.60;6.10;;;;;;;8.96;50.75;100588.02;106763;1257;1016737;-74
2023/03/19 18:13:28;;;;;;;14.30;6.20;;;;;;;8.86;51.05;100585.89;106766;1258;1016477;-74
2023/03/19 18:18:21;;;;;;;7.80;6.60;;;;;;;8.80;51.30;100585.95;106807;1257;1016464;-73
2023/03/19 18:23:15;;;;;;;12.70;7.40;;;;;;;8.71;51.39;100576.61;106832;1257;1016452;-74
2023/03/19 18:28:08;;;;;;;11.20;6.40;;;;;;;8.63;51.74;100577.96;106734;1258;1016632;-73
2023/03/19 18:33:04;;;;;;;9.50;6.10;;;;;;;8.56;52.08;100575.39;106807;1257;1016218;-73
2023/03/19 18:37:58;;;;;;;9.00;6.70;;;;;;;8.51;52.15;100574.24;106804;1257;1073584;-74
2023/03/19 18:42:51;;;;;;;13.50;6.10;;;;;;;8.46;52.36;100575.66;106799;1257;1017346;-73
2023/03/19 18:47:47;;;;;;;8.50;6.90;;;;;;;8.40;52.51;100579.14;106732;1257;1016090;-74
2023/03/19 18:52:39;;;;;;;9.20;6.30;;;;;;;8.38;52.62;100580.48;106759;1257;1073835;-74
2023/03/19 18:57:43;;;;;;;10.50;6.70;;;;;;;8.34;52.83;100579.86;106761;1258;1016723;-74
2023/03/19 19:02:46;;;;;;;11.70;7.00;;;;;;;8.29;52.88;100578.02;106729;1257;1070541;-73
2023/03/19 19:07:39;;;;;;;16.30;8.20;;;;;;;8.22;53.07;100577.16;106728;1257;1016381;-74
2023/03/19 19:12:32;;;;;;;12.00;6.80;;;;;;;8.14;53.20;100573.32;106822;1257;1016191;-74
2023/03/19 19:17:28;;;;;;;12.60;7.90;;;;;;;8.10;53.44;100572.72;106687;1258;1016445;-73
2023/03/19 19:22:20;;;;;;;9.70;6.30;;;;;;;8.05;53.63;100574.32;106732;1261;1065656;-74
2023/03/19 19:27:20;;;;;;;15.20;7.30;;;;;;;7.97;53.79;100579.98;106762;1257;1016458;-74
2023/03/19 19:32:35;;;;;;;13.10;8.10;;;;;;;7.92;54.08;100582.44;106793;1261;1049934;-74
2023/03/19 19:37:28;;;;;;;8.60;6.90;;;;;;;7.91;54.34;100582.77;106779;1261;1061376;-74
2023/03/19 19:42:22;;;;;;;9.20;7.60;;;;;;;7.87;54.39;100588.00;106759;1257;1016487;-73
2023/03/19 19:47:16;;;;;;;9.70;7.80;;;;;;;7.78;54.78;100588.83;106947;1257;1065443;-73
2023/03/19 19:52:19;;;;;;;11.50;9.20;;;;;;;7.77;54.78;100585.86;106743;1258;1016152;-73
2023/03/19 19:57:21;;;;;;;11.70;8.90;;;;;;;7.75;54.82;100586.51;106792;1258;1054072;-73
2023/03/19 20:02:20;;;;;;;15.20;9.80;;;;;;;7.74;54.91;100586.79;106789;1257;1058269;-74
2023/03/19 20:07:13;;;;;;;18.00;11.20;;;;;;;7.64;55.10;100588.11;106696;1261;1072579;-74
2023/03/19 20:12:19;;;;;;;15.20;10.60;;;;;;;7.53;55.25;100587.64;106789;1257;1016346;-73
2023/03/19 20:17:20;;;;;;;17.50;10.40;;;;;;;7.41;55.66;100584.56;106809;1257;1073778;-74
2023/03/19 20:22:13;;;;;;;18.00;10.70;;;;;;;7.28;55.68;100579.00;106779;1257;1051392;-73
2023/03/19 20:27:15;;;;;;;14.10;10.20;;;;;;;7.17;55.95;100577.51;106892;1258;1016461;-73
2023/03/19 20:32:26;;;;;;;16.80;12.60;;;;;;;7.08;56.30;100579.48;106813;1257;1072706;-74
2023/03/19 20:37:19;;;;;;;18.40;11.50;;;;;;;6.99;56.34;100575.58;106807;1257;1065522;-73
2023/03/19 20:42:15;;;;;;;17.00;12.10;;;;;;;6.86;56.66;100577.65;106742;1258;1016295;-73
2023/03/19 20:47:16;;;;;;;19.00;13.20;;;;;;;6.74;56.65;100574.02;106745;1257;1051549;-73
2023/03/19 20:52:11;;;;;;;23.90;16.20;;;;;;;6.61;56.88;100570.33;106785;1257;1056837;-73
2023/03/19 20:57:03;;;;;;;16.80;12.50;;;;;;;6.48;57.11;100575.27;106806;1257;1073619;-74
2023/03/19 21:01:57;;;;;;;23.90;17.30;;;;;;;6.37;57.50;100569.27;106750;1261;1016425;-73
2023/03/19 21:06:50;;;;;;;25.00;17.20;;;;;;;6.29;57.49;100565.19;106764;1258;1016606;-73
2023/03/19 21:11:46;;;;;;;25.30;17.40;;;;;;;6.18;57.70;100564.52;106769;1258;1050676;-73
2023/03/19 21:16:39;;;;;;;26.10;17.00;;;;;;;6.08;57.91;100564.36;106722;1257;1016488;-73
2023/03/19 21:21:35;;;;;;;27.10;17.30;;;;;;;5.97;58.12;100567.94;106721;1257;1016450;-74
2023/03/19 21:26:28;;;;;;;27.70;17.30;;;;;;;5.86;58.12;100574.96;106661;1258;1065643;-74
2023/03/19 21:31:21;;;;;;;31.50;18.70;;;;;;;5.75;58.30;100576.29;106694;1257;1016520;-73
2023/03/19 21:36:15;;;;;;;35.90;21.40;;;;;;;5.64;58.66;100577.30;106734;1258;1016264;-73
2023/03/19 21:41:27;;;;;;;34.70;21.00;;;;;;;5.54;58.72;100582.80;106775;1257;1016074;-74
2023/03/19 21:46:24;;;;;;;29.20;19.60;;;;;;;5.44;58.79;100578.48;106745;1257;1072549;-74
2023/03/19 21:51:17;;;;;;;35.30;21.10;;;;;;;5.32;58.90;100573.42;106818;1259;1065167;-74
2023/03/19 21:56:20;;;;;;;46.00;26.80;;;;;;;5.28;59.46;100564.35;106776;1257;1016009;-73
2023/03/19 22:01:19;;;;;;;39.30;24.30;;;;;;;5.23;59.37;100569.52;106679;1261;1051735;-74
2023/03/19 22:06:13;;;;;;;50.00;27.30;;;;;;;5.12;59.72;100569.77;106722;1257;1057241;-74
2023/03/19 22:11:16;;;;;;;47.80;25.80;;;;;;;5.11;59.80;100566.66;106754;1259;1016232;-73
2023/03/19 22:16:23;;;;;;;46.70;28.20;;;;;;;5.09;59.86;100567.96;106749;1257;1069150;-74